Terminal Aerodrome Forecast
Issued by NWS Boston, MA

Home | Current Version | Previous Version | Text Only | Print | Product List | Glossary On
Versions: 1 2 3 4 5 6 7 8 9 10 11 12 13 14 15 16 17 18 19 20 21 22 23 24 25 26 27 28 29 30 31 32 33 34 35 36 37 38 39 40 41 42 43 44 45 46 47 48 49 50
000
FTUS41 KBOX 301120
TAFBOS
TAF
KBOS 301120Z 3012/0118 VRB03KT P6SM SCT250
     FM301600 10008KT P6SM SCT100
     FM301800 10010KT P6SM SCT050
     FM010000 15007KT P6SM SCT040
     FM010200 18006KT P6SM BKN040
     FM011600 14007KT P6SM VCSH OVC040=

USA.gov is the U.S. government's official web portal to all federal, state and local government web resources and services.